createdAt,value
2022-10-30T00:01:47.696Z,61.30
2022-10-30T00:03:49.403Z,61.30
2022-10-30T00:05:52.070Z,61.20
2022-10-30T00:07:56.246Z,61.20
2022-10-30T00:09:58.025Z,61.10
2022-10-30T00:11:59.816Z,61.10
2022-10-30T00:14:01.488Z,61.10
2022-10-30T00:16:06.128Z,61.10
2022-10-30T00:18:07.770Z,61.00
2022-10-30T00:20:09.717Z,61.20
2022-10-30T00:22:11.344Z,61.70
2022-10-30T00:24:12.954Z,61.30
2022-10-30T00:26:15.315Z,61.50
2022-10-30T00:28:16.910Z,61.50
2022-10-30T00:30:18.842Z,61.60
2022-10-30T00:32:20.450Z,61.10
2022-10-30T00:34:22.077Z,61.40
2022-10-30T00:36:23.935Z,61.00
2022-10-30T00:38:25.823Z,61.20
2022-10-30T00:40:27.455Z,61.20
2022-10-30T00:42:31.066Z,61.40
2022-10-30T00:44:37.924Z,62.00
2022-10-30T00:46:41.513Z,61.10
2022-10-30T00:48:48.036Z,61.20
2022-10-30T00:50:49.757Z,61.20
2022-10-30T00:53:11.742Z,61.10
2022-10-30T00:55:25.443Z,61.20
2022-10-30T00:57:27.146Z,61.00
2022-10-30T00:59:32.819Z,61.10
2022-10-30T01:01:38.715Z,61.00
2022-10-30T01:03:41.579Z,61.00
2022-10-30T01:05:47.975Z,61.00
2022-10-30T01:07:49.611Z,61.30
2022-10-30T01:09:51.277Z,61.00
2022-10-30T01:11:52.906Z,61.00
2022-10-30T01:13:58.630Z,61.00
2022-10-30T01:16:44.485Z,61.00
2022-10-30T01:19:07.574Z,61.00
2022-10-30T01:21:38.634Z,61.10
2022-10-30T01:23:53.734Z,61.00
2022-10-30T01:26:08.795Z,61.00
2022-10-30T01:28:19.213Z,61.10
2022-10-30T01:30:52.801Z,61.00
2022-10-30T01:33:31.734Z,61.10
2022-10-30T01:36:01.269Z,61.10
2022-10-30T01:38:08.721Z,61.00
2022-10-30T01:40:14.058Z,61.60
2022-10-30T01:42:37.525Z,61.20
2022-10-30T01:44:39.357Z,61.00
2022-10-30T01:46:48.438Z,61.20
2022-10-30T01:48:56.221Z,61.20
2022-10-30T01:51:21.385Z,61.20
2022-10-30T01:53:31.490Z,61.10
2022-10-30T01:55:36.141Z,61.10
2022-10-30T01:57:46.553Z,61.20
2022-10-30T01:59:56.271Z,61.20
2022-10-30T02:01:59.144Z,61.20
2022-10-30T02:06:08.351Z,61.20
2022-10-30T02:08:09.990Z,61.20
2022-10-30T02:10:12.475Z,61.20
2022-10-30T02:12:14.489Z,61.20
2022-10-30T02:14:26.442Z,61.30
2022-10-30T02:16:28.249Z,61.20
2022-10-30T02:18:30.264Z,61.20
2022-10-30T02:20:32.200Z,61.10
2022-10-30T02:22:33.928Z,61.20
2022-10-30T02:24:35.570Z,61.30
2022-10-30T02:26:37.227Z,61.10
2022-10-30T02:28:38.815Z,61.10
2022-10-30T02:30:43.980Z,61.10
2022-10-30T02:32:45.648Z,61.30
2022-10-30T02:34:47.521Z,61.10
2022-10-30T02:36:49.204Z,61.10
2022-10-30T02:38:50.880Z,61.20
2022-10-30T02:40:52.456Z,61.10
2022-10-30T02:42:55.159Z,61.10
2022-10-30T02:44:56.778Z,61.20
2022-10-30T02:46:58.411Z,61.10
2022-10-30T02:49:00.115Z,61.20
2022-10-30T02:51:05.326Z,61.20
2022-10-30T02:53:06.913Z,61.20
2022-10-30T02:55:08.862Z,61.20
2022-10-30T02:57:10.572Z,61.20
2022-10-30T02:59:12.250Z,61.20
2022-10-30T03:01:17.278Z,61.20
2022-10-30T03:03:23.041Z,61.20
2022-10-30T03:05:26.234Z,61.20
2022-10-30T03:07:28.080Z,61.20
2022-10-30T03:09:29.683Z,61.20
2022-10-30T03:11:33.250Z,61.20
2022-10-30T03:13:36.201Z,61.20
2022-10-30T03:15:37.773Z,61.20
2022-10-30T03:19:45.875Z,61.20
2022-10-30T03:21:47.501Z,61.20
2022-10-30T03:23:50.523Z,61.20
2022-10-30T03:25:54.175Z,61.10
2022-10-30T03:27:56.117Z,61.30
2022-10-30T03:29:58.048Z,61.20
2022-10-30T03:31:59.639Z,61.30
2022-10-30T03:34:01.250Z,61.30
2022-10-30T03:36:03.958Z,61.30
2022-10-30T03:38:05.634Z,61.40
2022-10-30T03:40:07.854Z,61.30
2022-10-30T03:42:09.446Z,61.30
2022-10-30T03:44:11.055Z,61.20
2022-10-30T03:46:12.752Z,61.20
2022-10-30T03:48:14.444Z,61.20
2022-10-30T03:50:16.225Z,61.10
2022-10-30T03:52:17.831Z,61.10
2022-10-30T03:54:19.463Z,61.30
2022-10-30T03:56:21.071Z,61.30
2022-10-30T03:58:22.670Z,61.30
2022-10-30T04:00:24.447Z,61.30
2022-10-30T04:02:26.071Z,61.30
2022-10-30T04:04:27.669Z,61.20
2022-10-30T04:06:29.298Z,61.20
2022-10-30T04:08:30.959Z,61.10
2022-10-30T04:10:33.013Z,61.40
2022-10-30T04:12:34.635Z,61.30
2022-10-30T04:14:36.241Z,61.10
2022-10-30T04:16:37.838Z,60.80
2022-10-30T04:18:39.477Z,61.00
2022-10-30T04:20:41.188Z,60.90
2022-10-30T04:22:42.918Z,60.90
2022-10-30T04:24:45.287Z,61.00
2022-10-30T04:26:46.884Z,61.00
2022-10-30T04:28:48.601Z,61.00
2022-10-30T04:30:50.272Z,61.00
2022-10-30T04:32:54.692Z,61.20
2022-10-30T04:34:56.483Z,61.30
2022-10-30T04:36:58.065Z,61.20
2022-10-30T04:39:00.368Z,61.40
2022-10-30T04:41:02.060Z,61.50
2022-10-30T04:43:04.624Z,61.10
2022-10-30T04:45:11.138Z,61.10
2022-10-30T04:47:17.302Z,61.20
2022-10-30T04:49:18.906Z,61.20
2022-10-30T04:51:20.563Z,61.10
2022-10-30T04:53:22.208Z,61.10
2022-10-30T04:55:23.863Z,61.30
2022-10-30T04:57:25.542Z,61.40
2022-10-30T04:59:27.133Z,61.70
2022-10-30T05:01:28.907Z,61.50
2022-10-30T05:03:30.765Z,61.50
2022-10-30T05:05:32.817Z,61.50
2022-10-30T05:07:34.447Z,61.90
2022-10-30T05:09:36.116Z,61.40
2022-10-30T05:11:37.783Z,61.20
2022-10-30T05:13:39.425Z,61.50
2022-10-30T05:15:41.082Z,61.80
2022-10-30T05:17:42.793Z,62.40
2022-10-30T05:19:44.383Z,61.30
2022-10-30T05:21:45.979Z,61.30
2022-10-30T05:23:47.629Z,61.70
2022-10-30T05:25:49.268Z,61.40
2022-10-30T05:27:50.929Z,61.40
2022-10-30T05:29:52.535Z,61.20
2022-10-30T05:31:54.111Z,61.20
2022-10-30T05:33:55.722Z,61.60
2022-10-30T05:35:57.323Z,61.70
2022-10-30T05:38:00.022Z,61.60
2022-10-30T05:40:01.961Z,61.60
2022-10-30T05:42:03.775Z,61.50
2022-10-30T05:44:05.405Z,61.40
2022-10-30T05:46:07.035Z,61.40
2022-10-30T05:48:08.659Z,61.90
2022-10-30T05:50:12.287Z,61.50
2022-10-30T05:52:13.981Z,61.50
2022-10-30T05:54:15.587Z,61.70
2022-10-30T05:56:17.191Z,61.80
2022-10-30T05:58:18.775Z,61.60
2022-10-30T06:00:20.492Z,61.60
2022-10-30T06:02:22.302Z,61.60
2022-10-30T06:04:26.753Z,61.50
2022-10-30T06:06:28.407Z,61.40
2022-10-30T06:08:29.999Z,61.50
2022-10-30T06:10:32.286Z,61.20
2022-10-30T06:12:33.974Z,61.20
2022-10-30T06:14:35.591Z,61.20
2022-10-30T06:16:37.202Z,61.20
2022-10-30T06:18:38.820Z,60.70
2022-10-30T06:20:41.738Z,60.50
2022-10-30T06:22:53.419Z,60.70
2022-10-30T06:24:55.032Z,60.80
2022-10-30T06:26:56.667Z,60.80
2022-10-30T06:28:58.256Z,60.90
2022-10-30T06:30:59.894Z,61.60
2022-10-30T06:33:03.880Z,61.10
2022-10-30T06:35:05.712Z,61.10
2022-10-30T06:37:07.404Z,60.90
2022-10-30T06:39:09.047Z,60.50
2022-10-30T06:41:10.639Z,60.00
2022-10-30T06:43:12.232Z,60.00
2022-10-30T06:45:15.137Z,60.40
2022-10-30T06:47:16.792Z,60.70
2022-10-30T06:49:18.394Z,60.90
2022-10-30T06:51:20.394Z,61.10
2022-10-30T06:53:22.019Z,61.10
2022-10-30T06:55:23.698Z,61.10
2022-10-30T06:57:25.366Z,61.20
2022-10-30T06:59:27.102Z,61.60
2022-10-30T07:01:28.836Z,61.70
2022-10-30T07:03:30.475Z,61.60
2022-10-30T07:05:32.066Z,61.30
2022-10-30T07:07:33.727Z,61.30
2022-10-30T07:09:35.382Z,61.40
2022-10-30T07:11:37.067Z,61.40
2022-10-30T07:13:38.666Z,61.50
2022-10-30T07:15:40.319Z,61.30
2022-10-30T07:17:41.910Z,61.10
2022-10-30T07:19:43.511Z,61.20
2022-10-30T07:21:45.121Z,61.40
2022-10-30T07:23:46.794Z,61.40
2022-10-30T07:25:48.431Z,61.20
2022-10-30T07:27:54.273Z,61.20
2022-10-30T07:29:55.882Z,61.60
2022-10-30T07:32:02.964Z,61.30
2022-10-30T07:34:05.151Z,61.60
2022-10-30T07:36:07.455Z,61.50
2022-10-30T07:38:12.618Z,61.60
2022-10-30T07:40:14.345Z,61.80
2022-10-30T07:42:15.968Z,60.80
2022-10-30T07:44:17.636Z,61.30
2022-10-30T07:46:19.240Z,61.10
2022-10-30T07:48:20.852Z,60.90
2022-10-30T07:50:23.226Z,60.70
2022-10-30T07:52:24.873Z,60.80
2022-10-30T07:54:26.650Z,58.60
2022-10-30T07:56:28.226Z,58.70
2022-10-30T07:58:29.810Z,58.50
2022-10-30T08:00:31.437Z,57.80
2022-10-30T08:02:33.476Z,59.20
2022-10-30T08:04:35.232Z,59.60
2022-10-30T08:06:37.020Z,59.90
2022-10-30T08:08:40.488Z,59.80
2022-10-30T08:10:44.653Z,59.70
2022-10-30T08:12:47.610Z,59.70
2022-10-30T08:14:49.222Z,59.70
2022-10-30T08:16:51.415Z,59.70
2022-10-30T08:18:53.453Z,59.70
2022-10-30T08:20:55.062Z,59.80
2022-10-30T08:22:58.252Z,59.60
2022-10-30T08:25:00.145Z,59.70
2022-10-30T08:27:01.747Z,59.60
2022-10-30T08:29:03.838Z,59.50
2022-10-30T08:31:05.928Z,59.50
2022-10-30T08:33:13.607Z,59.50
2022-10-30T08:35:19.836Z,59.50
2022-10-30T08:37:21.923Z,59.50
2022-10-30T08:39:23.545Z,59.50
2022-10-30T08:41:25.154Z,59.30
2022-10-30T08:43:26.850Z,59.30
2022-10-30T08:45:31.187Z,59.20
2022-10-30T08:47:33.159Z,59.20
2022-10-30T08:49:34.737Z,59.20
2022-10-30T08:51:36.564Z,59.20
2022-10-30T08:53:38.315Z,59.10
2022-10-30T08:55:39.973Z,59.20
2022-10-30T08:57:41.629Z,59.10
2022-10-30T08:59:43.262Z,59.00
2022-10-30T09:01:45.304Z,59.10
2022-10-30T09:03:47.836Z,59.00
2022-10-30T09:05:50.070Z,59.00
2022-10-30T09:07:57.708Z,59.00
2022-10-30T09:09:59.613Z,58.90
2022-10-30T09:12:01.300Z,58.80
2022-10-30T09:14:03.273Z,58.80
2022-10-30T09:16:05.211Z,58.70
2022-10-30T09:18:06.866Z,58.70
2022-10-30T09:20:09.001Z,58.60
2022-10-30T09:22:10.598Z,58.50
2022-10-30T09:24:12.225Z,58.60
2022-10-30T09:26:17.055Z,58.70
2022-10-30T09:28:21.479Z,58.50
2022-10-30T09:30:23.467Z,58.60
2022-10-30T09:32:25.144Z,58.50
2022-10-30T09:34:30.736Z,58.30
2022-10-30T09:36:33.009Z,58.40
2022-10-30T09:38:34.613Z,58.40
2022-10-30T09:40:55.146Z,58.20
2022-10-30T09:43:21.804Z,58.40
2022-10-30T09:45:56.022Z,58.30
2022-10-30T09:48:32.597Z,58.20
2022-10-30T09:50:39.690Z,58.20
2022-10-30T09:53:07.024Z,58.10
2022-10-30T09:55:34.277Z,58.20
2022-10-30T09:57:54.197Z,58.00
2022-10-30T10:00:12.846Z,57.90
2022-10-30T10:02:33.033Z,57.90
2022-10-30T10:04:43.444Z,57.70
2022-10-30T10:06:48.644Z,57.70
2022-10-30T10:09:03.653Z,57.70
2022-10-30T10:11:19.346Z,57.70
2022-10-30T10:13:33.752Z,57.70
2022-10-30T10:15:51.742Z,57.60
2022-10-30T10:17:54.956Z,57.50
2022-10-30T10:20:01.496Z,58.00
2022-10-30T10:22:20.663Z,57.40
2022-10-30T10:24:30.411Z,57.40
2022-10-30T10:26:50.001Z,57.40
2022-10-30T10:28:57.519Z,58.00
2022-10-30T10:31:49.725Z,57.30
2022-10-30T10:34:04.482Z,57.20
2022-10-30T10:36:30.758Z,57.20
2022-10-30T10:39:01.000Z,57.10
2022-10-30T10:41:21.321Z,57.10
2022-10-30T10:43:42.610Z,57.10
2022-10-30T10:45:57.934Z,57.00
2022-10-30T10:48:25.343Z,57.00
2022-10-30T10:50:36.457Z,57.00
2022-10-30T10:52:47.688Z,57.00
2022-10-30T10:54:57.419Z,56.90
2022-10-30T10:56:59.876Z,56.80
2022-10-30T10:59:05.307Z,56.70
2022-10-30T11:01:13.854Z,56.70
2022-10-30T11:03:42.332Z,56.70
2022-10-30T11:06:18.898Z,56.50
2022-10-30T11:08:32.401Z,56.50
2022-10-30T11:10:33.989Z,56.60
2022-10-30T11:12:37.175Z,56.40
2022-10-30T11:14:39.234Z,56.40
2022-10-30T11:17:08.836Z,56.30
2022-10-30T11:19:10.486Z,56.30
2022-10-30T11:21:18.461Z,56.30
2022-10-30T11:23:55.581Z,56.10
2022-10-30T11:25:57.389Z,56.10
2022-10-30T11:28:04.761Z,56.30
2022-10-30T11:30:06.933Z,56.20
2022-10-30T11:32:22.861Z,56.10
2022-10-30T11:34:36.104Z,56.30
2022-10-30T11:36:37.714Z,56.30
2022-10-30T11:38:39.327Z,56.10
2022-10-30T11:40:47.866Z,56.30
2022-10-30T11:43:03.522Z,56.00
2022-10-30T11:45:13.250Z,56.10
2022-10-30T11:47:17.275Z,56.10
2022-10-30T11:49:40.784Z,56.00
2022-10-30T11:51:47.722Z,56.20
2022-10-30T11:53:50.633Z,56.90
2022-10-30T11:55:52.320Z,56.20
2022-10-30T11:57:58.835Z,56.30
2022-10-30T12:00:05.258Z,56.30
2022-10-30T12:02:40.925Z,56.40
2022-10-30T12:04:42.544Z,56.50
2022-10-30T12:06:44.219Z,56.70
2022-10-30T12:09:20.646Z,56.80
2022-10-30T12:11:29.389Z,56.90
2022-10-30T12:13:39.437Z,57.00
2022-10-30T12:15:41.719Z,56.90
2022-10-30T12:17:52.350Z,57.00
2022-10-30T12:19:55.364Z,57.70
2022-10-30T12:21:58.287Z,57.20
2022-10-30T12:24:06.780Z,57.00
2022-10-30T12:26:11.553Z,57.00
2022-10-30T12:28:17.365Z,57.00
2022-10-30T12:30:20.954Z,57.00
2022-10-30T12:32:24.577Z,57.00
2022-10-30T12:34:34.719Z,57.00
2022-10-30T12:36:45.965Z,57.00
2022-10-30T12:38:55.647Z,57.10
2022-10-30T12:41:16.874Z,57.20
2022-10-30T12:43:27.224Z,57.20
2022-10-30T12:45:37.246Z,57.20
2022-10-30T12:47:41.834Z,57.20
2022-10-30T12:49:52.408Z,57.30
2022-10-30T12:52:14.873Z,57.30
2022-10-30T12:54:39.638Z,57.30
2022-10-30T12:56:45.351Z,57.40
2022-10-30T12:58:54.212Z,57.50
2022-10-30T13:01:06.746Z,57.50
2022-10-30T13:03:23.694Z,58.40
2022-10-30T13:05:36.866Z,57.50
2022-10-30T13:07:58.369Z,57.60
2022-10-30T13:10:39.107Z,57.60
2022-10-30T13:12:43.870Z,57.60
2022-10-30T13:15:03.671Z,57.70
2022-10-30T13:17:13.465Z,57.60
2022-10-30T13:19:15.112Z,57.70
2022-10-30T13:21:21.877Z,57.60
2022-10-30T13:23:39.232Z,57.60
2022-10-30T13:26:03.860Z,57.60
2022-10-30T13:28:28.303Z,57.60
2022-10-30T13:30:42.934Z,57.70
2022-10-30T13:33:22.738Z,57.60
2022-10-30T13:35:51.575Z,57.70
2022-10-30T13:38:20.119Z,57.70
2022-10-30T13:40:42.553Z,57.70
2022-10-30T13:42:56.141Z,57.70
2022-10-30T13:45:05.190Z,57.60
2022-10-30T13:47:24.465Z,57.70
2022-10-30T13:49:58.227Z,57.70
2022-10-30T13:52:14.545Z,57.70
2022-10-30T13:54:25.266Z,57.80
2022-10-30T13:56:27.926Z,57.80
2022-10-30T13:58:42.417Z,57.80
2022-10-30T14:00:58.304Z,57.80
2022-10-30T14:03:06.072Z,57.90
2022-10-30T14:05:30.461Z,57.90
2022-10-30T14:08:01.831Z,57.90
2022-10-30T14:10:19.555Z,58.00
2022-10-30T14:12:42.879Z,58.00
2022-10-30T14:14:47.780Z,58.10
2022-10-30T14:17:15.877Z,58.00
2022-10-30T14:19:18.536Z,58.10
2022-10-30T14:21:40.758Z,58.20
2022-10-30T14:23:42.484Z,58.20
2022-10-30T14:25:44.346Z,58.20
2022-10-30T14:27:55.836Z,58.40
2022-10-30T14:29:58.367Z,58.30
2022-10-30T14:32:20.226Z,58.30
2022-10-30T14:34:44.114Z,58.30
2022-10-30T14:36:45.666Z,58.30
2022-10-30T14:39:00.910Z,58.40
2022-10-30T14:41:20.336Z,58.50
2022-10-30T14:43:36.067Z,58.50
2022-10-30T14:46:27.429Z,58.50
2022-10-30T14:48:45.020Z,58.50
2022-10-30T14:50:49.580Z,58.50
2022-10-30T14:53:00.278Z,59.20
2022-10-30T14:55:31.186Z,58.60
2022-10-30T14:57:52.229Z,58.60
2022-10-30T15:00:13.701Z,58.70
2022-10-30T15:02:30.496Z,58.70
2022-10-30T15:04:53.097Z,58.70
2022-10-30T15:07:04.113Z,58.70
2022-10-30T15:09:24.237Z,58.80
2022-10-30T15:11:42.096Z,58.80
2022-10-30T15:13:58.934Z,58.90
2022-10-30T15:16:03.207Z,58.90
2022-10-30T15:18:19.632Z,58.90
2022-10-30T15:20:27.566Z,59.00
2022-10-30T15:22:30.601Z,58.90
2022-10-30T15:24:33.960Z,59.00
2022-10-30T15:26:38.391Z,59.00
2022-10-30T15:28:40.538Z,59.00
2022-10-30T15:31:02.253Z,59.00
2022-10-30T15:33:03.990Z,59.10
2022-10-30T15:35:18.401Z,59.10
2022-10-30T15:37:20.034Z,59.20
2022-10-30T15:39:21.733Z,59.10
2022-10-30T15:41:23.363Z,59.20
2022-10-30T15:43:33.612Z,59.30
2022-10-30T15:45:41.078Z,59.20
2022-10-30T15:47:48.107Z,59.20
2022-10-30T15:49:55.058Z,59.20
2022-10-30T15:51:57.414Z,59.20
2022-10-30T15:54:02.617Z,59.20
2022-10-30T15:56:05.775Z,59.20
2022-10-30T15:58:07.924Z,59.30
2022-10-30T16:00:21.698Z,59.30
2022-10-30T16:02:25.999Z,59.20
2022-10-30T16:04:32.842Z,59.20
2022-10-30T16:06:34.457Z,59.30
2022-10-30T16:08:48.282Z,59.30
2022-10-30T16:10:53.874Z,59.30
2022-10-30T16:12:58.285Z,59.30
2022-10-30T16:15:08.313Z,59.40
2022-10-30T16:17:11.369Z,59.40
2022-10-30T16:19:29.064Z,59.40
2022-10-30T16:21:31.488Z,59.30
2022-10-30T16:23:51.584Z,59.50
2022-10-30T16:25:58.680Z,59.50
2022-10-30T16:28:00.845Z,59.40
2022-10-30T16:30:02.986Z,59.40
2022-10-30T16:32:14.789Z,59.40
2022-10-30T16:34:43.004Z,59.50
2022-10-30T16:36:45.019Z,60.10
2022-10-30T16:38:48.541Z,59.50
2022-10-30T16:40:51.273Z,59.50
2022-10-30T16:42:59.730Z,59.40
2022-10-30T16:45:10.567Z,59.40
2022-10-30T16:47:18.057Z,59.50
2022-10-30T16:49:29.344Z,59.50
2022-10-30T16:51:31.292Z,59.50
2022-10-30T16:53:33.072Z,59.40
2022-10-30T16:55:38.493Z,59.50
2022-10-30T16:57:45.378Z,59.60
2022-10-30T16:59:52.027Z,59.50
2022-10-30T17:02:01.875Z,59.50
2022-10-30T17:04:04.813Z,59.60
2022-10-30T17:06:24.403Z,59.70
2022-10-30T17:08:42.711Z,59.60
2022-10-30T17:10:55.731Z,59.60
2022-10-30T17:13:37.195Z,59.60
2022-10-30T17:15:40.597Z,59.60
2022-10-30T17:17:42.598Z,59.50
2022-10-30T17:19:49.397Z,59.00
2022-10-30T17:21:53.059Z,57.70
2022-10-30T17:23:59.762Z,57.90
2022-10-30T17:26:11.566Z,58.50
2022-10-30T17:28:32.995Z,58.80
2022-10-30T17:30:42.497Z,58.70
2022-10-30T17:32:45.534Z,59.00
2022-10-30T17:34:48.361Z,58.90
2022-10-30T17:36:50.043Z,58.80
2022-10-30T17:38:51.636Z,58.80
2022-10-30T17:40:53.318Z,58.80
2022-10-30T17:42:54.969Z,58.90
2022-10-30T17:44:56.570Z,59.10
2022-10-30T17:46:58.254Z,59.20
2022-10-30T17:49:00.391Z,59.30
2022-10-30T17:51:02.003Z,59.30
2022-10-30T17:53:03.614Z,59.30
2022-10-30T17:55:23.219Z,59.30
2022-10-30T17:57:26.944Z,59.30
2022-10-30T17:59:29.752Z,59.50
2022-10-30T18:01:31.476Z,59.60
2022-10-30T18:03:33.304Z,59.20
2022-10-30T18:05:36.690Z,59.30
2022-10-30T18:07:38.306Z,59.10
2022-10-30T18:09:40.507Z,59.50
2022-10-30T18:11:42.167Z,59.20
2022-10-30T18:13:43.920Z,59.10
2022-10-30T18:15:54.481Z,59.10
2022-10-30T18:17:56.587Z,59.10
2022-10-30T18:19:58.221Z,59.00
2022-10-30T18:21:59.801Z,59.20
2022-10-30T18:24:01.399Z,59.30
2022-10-30T18:26:03.079Z,59.30
2022-10-30T18:28:04.847Z,59.20
2022-10-30T18:30:07.043Z,59.30
2022-10-30T18:32:10.150Z,59.30
2022-10-30T18:34:16.423Z,59.20
2022-10-30T18:36:23.868Z,59.20
2022-10-30T18:38:25.496Z,59.20
2022-10-30T18:40:27.594Z,59.10
2022-10-30T18:42:29.207Z,59.10
2022-10-30T18:44:30.811Z,59.20
2022-10-30T18:46:34.343Z,59.10
2022-10-30T18:48:35.967Z,59.10
2022-10-30T18:50:38.111Z,59.00
2022-10-30T18:52:39.774Z,59.00
2022-10-30T18:54:41.457Z,59.20
2022-10-30T18:56:43.322Z,59.40
2022-10-30T18:58:45.129Z,59.10
2022-10-30T19:01:10.598Z,58.90
2022-10-30T19:03:08.637Z,58.90
2022-10-30T19:05:39.859Z,59.00
2022-10-30T19:07:41.392Z,58.90
2022-10-30T19:09:43.305Z,58.90
2022-10-30T19:11:44.911Z,58.90
2022-10-30T19:13:46.975Z,58.80
2022-10-30T19:15:59.848Z,58.70
2022-10-30T19:18:02.981Z,58.60
2022-10-30T19:20:05.097Z,58.50
2022-10-30T19:22:06.709Z,58.70
2022-10-30T19:24:13.048Z,58.80
2022-10-30T19:26:16.016Z,58.70
2022-10-30T19:28:19.920Z,58.70
2022-10-30T19:30:22.497Z,58.90
2022-10-30T19:32:24.199Z,59.00
2022-10-30T19:34:25.795Z,59.10
2022-10-30T19:36:36.268Z,59.10
2022-10-30T19:38:38.085Z,59.20
2022-10-30T19:40:41.254Z,59.10
2022-10-30T19:42:43.198Z,59.20
2022-10-30T19:44:44.819Z,59.10
2022-10-30T19:46:46.429Z,59.10
2022-10-30T19:48:57.121Z,59.10
2022-10-30T19:50:59.957Z,59.10
2022-10-30T19:53:02.705Z,59.10
2022-10-30T19:55:04.762Z,59.30
2022-10-30T19:57:12.930Z,59.30
2022-10-30T19:59:15.785Z,59.20
2022-10-30T20:01:17.927Z,59.50
2022-10-30T20:03:19.848Z,59.60
2022-10-30T20:05:27.774Z,59.60
2022-10-30T20:07:29.404Z,59.80
2022-10-30T20:09:31.913Z,59.80
2022-10-30T20:11:33.511Z,60.00
2022-10-30T20:13:36.927Z,60.10
2022-10-30T20:15:38.964Z,60.00
2022-10-30T20:17:40.848Z,60.10
2022-10-30T20:19:42.536Z,60.10
2022-10-30T20:21:44.154Z,60.10
2022-10-30T20:23:46.016Z,60.10
2022-10-30T20:25:49.474Z,60.00
2022-10-30T20:28:11.974Z,60.00
2022-10-30T20:30:17.708Z,59.90
2022-10-30T20:32:19.307Z,59.90
2022-10-30T20:34:20.933Z,59.70
2022-10-30T20:36:22.557Z,59.70
2022-10-30T20:38:26.362Z,59.60
2022-10-30T20:40:29.514Z,59.60
2022-10-30T20:42:36.831Z,59.60
2022-10-30T20:44:38.851Z,59.50
2022-10-30T20:46:40.570Z,59.60
2022-10-30T20:48:42.159Z,59.60
2022-10-30T20:50:47.659Z,59.50
2022-10-30T20:52:53.386Z,59.50
2022-10-30T20:54:55.186Z,59.50
2022-10-30T20:56:56.960Z,59.50
2022-10-30T20:58:58.565Z,59.50
2022-10-30T21:01:00.277Z,59.50
2022-10-30T21:03:03.823Z,59.50
2022-10-30T21:05:11.972Z,59.40
2022-10-30T21:07:25.351Z,59.40
2022-10-30T21:09:26.960Z,59.30
2022-10-30T21:11:28.557Z,59.20
2022-10-30T21:13:30.645Z,59.20
2022-10-30T21:15:32.247Z,59.10
2022-10-30T21:17:34.297Z,59.10
2022-10-30T21:19:35.925Z,59.00
2022-10-30T21:21:37.549Z,59.00
2022-10-30T21:23:39.144Z,59.10
2022-10-30T21:25:40.813Z,59.10
2022-10-30T21:27:42.492Z,59.10
2022-10-30T21:29:46.162Z,59.10
2022-10-30T21:31:47.810Z,59.10
2022-10-30T21:33:49.485Z,58.90
2022-10-30T21:35:51.065Z,58.90
2022-10-30T21:37:52.705Z,58.90
2022-10-30T21:39:54.282Z,59.00
2022-10-30T21:41:55.878Z,58.90
2022-10-30T21:43:58.786Z,58.80
2022-10-30T21:46:07.771Z,59.40
2022-10-30T21:48:09.594Z,58.70
2022-10-30T21:50:12.756Z,58.80
2022-10-30T21:52:14.725Z,58.80
2022-10-30T21:54:18.613Z,58.80
2022-10-30T21:56:22.714Z,58.80
2022-10-30T21:58:24.303Z,58.80
2022-10-30T22:00:25.895Z,58.90
2022-10-30T22:02:27.501Z,58.90
2022-10-30T22:04:30.567Z,58.90
2022-10-30T22:06:32.770Z,59.60
2022-10-30T22:08:34.821Z,58.90
2022-10-30T22:10:36.625Z,58.90
2022-10-30T22:12:38.220Z,58.90
2022-10-30T22:14:39.833Z,58.90
2022-10-30T22:16:41.453Z,58.90
2022-10-30T22:18:43.184Z,59.00
2022-10-30T22:20:44.771Z,58.90
2022-10-30T22:22:46.375Z,59.00
2022-10-30T22:24:48.009Z,58.90
2022-10-30T22:26:49.601Z,59.00
2022-10-30T22:28:56.261Z,59.10
2022-10-30T22:31:10.370Z,59.10
2022-10-30T22:33:11.992Z,59.00
2022-10-30T22:35:13.643Z,59.00
2022-10-30T22:37:15.234Z,59.10
2022-10-30T22:39:16.830Z,59.10
2022-10-30T22:41:21.338Z,59.10
2022-10-30T22:43:22.950Z,59.10
2022-10-30T22:45:24.623Z,59.20
2022-10-30T22:47:26.279Z,59.20
2022-10-30T22:49:27.926Z,59.10
2022-10-30T22:51:32.562Z,59.10
2022-10-30T22:53:34.735Z,59.20
2022-10-30T22:55:36.349Z,59.20
2022-10-30T22:57:37.965Z,59.20
2022-10-30T22:59:39.547Z,59.10
2022-10-30T23:01:42.251Z,59.20
2022-10-30T23:03:44.729Z,59.20
2022-10-30T23:05:58.468Z,59.10
2022-10-30T23:08:01.284Z,59.10
2022-10-30T23:10:02.962Z,59.00
2022-10-30T23:12:04.995Z,59.10
2022-10-30T23:14:06.596Z,59.20
2022-10-30T23:16:11.959Z,59.30
2022-10-30T23:18:14.142Z,59.30
2022-10-30T23:20:16.247Z,59.20
2022-10-30T23:22:17.857Z,59.20
2022-10-30T23:24:19.471Z,59.20
2022-10-30T23:26:27.305Z,59.20
2022-10-30T23:28:28.943Z,59.20
2022-10-30T23:30:30.556Z,59.30
2022-10-30T23:32:32.147Z,59.30
2022-10-30T23:34:33.738Z,59.20
2022-10-30T23:36:35.720Z,59.20
2022-10-30T23:38:37.306Z,59.30
2022-10-30T23:40:38.906Z,59.20
2022-10-30T23:42:40.485Z,59.20
2022-10-30T23:44:42.087Z,59.30
2022-10-30T23:46:43.875Z,59.40
2022-10-30T23:48:45.540Z,59.40
2022-10-30T23:50:47.145Z,59.30
2022-10-30T23:52:48.777Z,59.30
2022-10-30T23:54:50.382Z,59.30
2022-10-30T23:56:52.000Z,59.50
2022-10-30T23:58:53.613Z,59.60
